sensor_id;sensor_type;location;lat;lon;timestamp;P1;durP1;ratioP1;P2;durP2;ratioP2
68432;SDS011;55412;51.350;17.056;2022-11-02T00:02:12;12.07;;;4.82;;
68432;SDS011;55412;51.350;17.056;2022-11-02T00:04:38;13.93;;;4.65;;
68432;SDS011;55412;51.350;17.056;2022-11-02T00:07:04;11.90;;;4.83;;
68432;SDS011;55412;51.350;17.056;2022-11-02T00:09:30;11.93;;;5.13;;
68432;SDS011;55412;51.350;17.056;2022-11-02T00:11:56;12.10;;;4.10;;
68432;SDS011;55412;51.350;17.056;2022-11-02T00:14:22;11.52;;;5.40;;
68432;SDS011;55412;51.350;17.056;2022-11-02T00:16:49;10.10;;;4.32;;
68432;SDS011;55412;51.350;17.056;2022-11-02T00:19:15;10.77;;;4.60;;
68432;SDS011;55412;51.350;17.056;2022-11-02T00:21:41;12.02;;;4.80;;
68432;SDS011;55412;51.350;17.056;2022-11-02T00:24:07;11.23;;;4.68;;
68432;SDS011;55412;51.350;17.056;2022-11-02T00:26:36;12.80;;;5.93;;
68432;SDS011;55412;51.350;17.056;2022-11-02T00:29:06;9.73;;;4.20;;
68432;SDS011;55412;51.350;17.056;2022-11-02T00:31:33;11.37;;;4.90;;
68432;SDS011;55412;51.350;17.056;2022-11-02T00:33:59;9.70;;;4.00;;
68432;SDS011;55412;51.350;17.056;2022-11-02T00:36:25;15.25;;;5.05;;
68432;SDS011;55412;51.350;17.056;2022-11-02T00:38:52;13.27;;;4.30;;
68432;SDS011;55412;51.350;17.056;2022-11-02T00:41:18;11.57;;;4.90;;
68432;SDS011;55412;51.350;17.056;2022-11-02T00:43:46;9.73;;;4.07;;
68432;SDS011;55412;51.350;17.056;2022-11-02T00:46:12;9.32;;;4.88;;
68432;SDS011;55412;51.350;17.056;2022-11-02T00:48:38;11.05;;;3.83;;
68432;SDS011;55412;51.350;17.056;2022-11-02T00:51:04;8.27;;;3.45;;
68432;SDS011;55412;51.350;17.056;2022-11-02T00:53:36;8.77;;;3.60;;
68432;SDS011;55412;51.350;17.056;2022-11-02T00:56:02;11.27;;;3.90;;
68432;SDS011;55412;51.350;17.056;2022-11-02T00:58:28;12.00;;;4.20;;
68432;SDS011;55412;51.350;17.056;2022-11-02T01:00:54;11.43;;;4.68;;
68432;SDS011;55412;51.350;17.056;2022-11-02T01:03:20;8.13;;;3.58;;
68432;SDS011;55412;51.350;17.056;2022-11-02T01:05:47;11.07;;;3.95;;
68432;SDS011;55412;51.350;17.056;2022-11-02T01:08:16;11.50;;;4.17;;
68432;SDS011;55412;51.350;17.056;2022-11-02T01:10:42;8.77;;;3.60;;
68432;SDS011;55412;51.350;17.056;2022-11-02T01:13:08;8.65;;;3.55;;
68432;SDS011;55412;51.350;17.056;2022-11-02T01:15:35;12.63;;;3.75;;
68432;SDS011;55412;51.350;17.056;2022-11-02T01:18:01;8.63;;;3.75;;
68432;SDS011;55412;51.350;17.056;2022-11-02T01:20:27;7.07;;;3.17;;
68432;SDS011;55412;51.350;17.056;2022-11-02T01:22:53;10.63;;;3.22;;
68432;SDS011;55412;51.350;17.056;2022-11-02T01:25:19;11.52;;;3.58;;
68432;SDS011;55412;51.350;17.056;2022-11-02T01:27:45;7.87;;;3.03;;
68432;SDS011;55412;51.350;17.056;2022-11-02T01:30:11;6.70;;;3.10;;
68432;SDS011;55412;51.350;17.056;2022-11-02T01:32:37;11.75;;;3.45;;
68432;SDS011;55412;51.350;17.056;2022-11-02T01:35:04;8.82;;;3.22;;
68432;SDS011;55412;51.350;17.056;2022-11-02T01:37:30;9.73;;;3.45;;
68432;SDS011;55412;51.350;17.056;2022-11-02T01:39:56;9.80;;;3.80;;
68432;SDS011;55412;51.350;17.056;2022-11-02T01:42:23;9.50;;;3.80;;
68432;SDS011;55412;51.350;17.056;2022-11-02T01:44:52;11.38;;;3.72;;
68432;SDS011;55412;51.350;17.056;2022-11-02T01:47:28;18.42;;;4.13;;
68432;SDS011;55412;51.350;17.056;2022-11-02T01:50:12;10.53;;;3.53;;
68432;SDS011;55412;51.350;17.056;2022-11-02T01:52:43;10.60;;;3.40;;
68432;SDS011;55412;51.350;17.056;2022-11-02T01:55:12;11.00;;;4.07;;
68432;SDS011;55412;51.350;17.056;2022-11-02T01:57:58;9.20;;;3.50;;
68432;SDS011;55412;51.350;17.056;2022-11-02T02:00:33;11.25;;;4.45;;
68432;SDS011;55412;51.350;17.056;2022-11-02T02:03:01;8.30;;;3.63;;
68432;SDS011;55412;51.350;17.056;2022-11-02T02:05:39;8.05;;;3.58;;
68432;SDS011;55412;51.350;17.056;2022-11-02T02:08:27;8.18;;;3.25;;
68432;SDS011;55412;51.350;17.056;2022-11-02T02:10:55;12.73;;;3.30;;
68432;SDS011;55412;51.350;17.056;2022-11-02T02:13:22;7.97;;;3.25;;
68432;SDS011;55412;51.350;17.056;2022-11-02T02:18:22;13.88;;;3.25;;
68432;SDS011;55412;51.350;17.056;2022-11-02T02:21:11;8.95;;;4.07;;
68432;SDS011;55412;51.350;17.056;2022-11-02T02:24:23;8.38;;;3.22;;
68432;SDS011;55412;51.350;17.056;2022-11-02T02:30:30;8.70;;;3.23;;
68432;SDS011;55412;51.350;17.056;2022-11-02T02:33:13;10.30;;;3.30;;
68432;SDS011;55412;51.350;17.056;2022-11-02T02:36:17;7.60;;;2.92;;
68432;SDS011;55412;51.350;17.056;2022-11-02T02:39:00;7.40;;;3.45;;
68432;SDS011;55412;51.350;17.056;2022-11-02T02:47:47;7.70;;;2.97;;
68432;SDS011;55412;51.350;17.056;2022-11-02T02:50:34;9.00;;;3.28;;
68432;SDS011;55412;51.350;17.056;2022-11-02T02:53:14;8.90;;;3.55;;
68432;SDS011;55412;51.350;17.056;2022-11-02T02:55:46;9.40;;;3.20;;
68432;SDS011;55412;51.350;17.056;2022-11-02T02:58:16;6.67;;;2.70;;
68432;SDS011;55412;51.350;17.056;2022-11-02T03:00:51;8.82;;;2.40;;
68432;SDS011;55412;51.350;17.056;2022-11-02T03:03:19;8.18;;;3.35;;
68432;SDS011;55412;51.350;17.056;2022-11-02T03:06:00;9.07;;;3.20;;
68432;SDS011;55412;51.350;17.056;2022-11-02T03:08:50;8.20;;;2.90;;
68432;SDS011;55412;51.350;17.056;2022-11-02T03:12:26;10.03;;;3.50;;
68432;SDS011;55412;51.350;17.056;2022-11-02T03:20:32;11.73;;;3.10;;
68432;SDS011;55412;51.350;17.056;2022-11-02T03:36:51;12.15;;;2.63;;
68432;SDS011;55412;51.350;17.056;2022-11-02T03:39:56;10.43;;;2.87;;
68432;SDS011;55412;51.350;17.056;2022-11-02T03:42:50;6.72;;;2.67;;
68432;SDS011;55412;51.350;17.056;2022-11-02T03:45:18;8.27;;;3.08;;
68432;SDS011;55412;51.350;17.056;2022-11-02T03:47:50;9.02;;;3.08;;
68432;SDS011;55412;51.350;17.056;2022-11-02T03:50:24;8.88;;;3.80;;
68432;SDS011;55412;51.350;17.056;2022-11-02T03:53:00;9.20;;;2.97;;
68432;SDS011;55412;51.350;17.056;2022-11-02T03:55:46;11.65;;;2.97;;
68432;SDS011;55412;51.350;17.056;2022-11-02T03:58:17;6.13;;;2.80;;
68432;SDS011;55412;51.350;17.056;2022-11-02T04:00:45;8.35;;;3.10;;
68432;SDS011;55412;51.350;17.056;2022-11-02T04:03:17;8.32;;;3.17;;
68432;SDS011;55412;51.350;17.056;2022-11-02T04:05:46;9.73;;;3.07;;
68432;SDS011;55412;51.350;17.056;2022-11-02T04:08:12;10.85;;;2.95;;
68432;SDS011;55412;51.350;17.056;2022-11-02T04:10:52;7.13;;;2.58;;
68432;SDS011;55412;51.350;17.056;2022-11-02T04:13:36;8.77;;;2.60;;
68432;SDS011;55412;51.350;17.056;2022-11-02T04:16:21;10.85;;;3.85;;
68432;SDS011;55412;51.350;17.056;2022-11-02T04:18:47;8.10;;;3.30;;
68432;SDS011;55412;51.350;17.056;2022-11-02T04:21:32;7.13;;;3.25;;
68432;SDS011;55412;51.350;17.056;2022-11-02T04:23:58;10.75;;;3.10;;
68432;SDS011;55412;51.350;17.056;2022-11-02T04:26:42;7.22;;;2.63;;
68432;SDS011;55412;51.350;17.056;2022-11-02T04:29:08;7.83;;;2.50;;
68432;SDS011;55412;51.350;17.056;2022-11-02T04:31:35;9.40;;;2.03;;
68432;SDS011;55412;51.350;17.056;2022-11-02T04:34:01;10.55;;;2.53;;
68432;SDS011;55412;51.350;17.056;2022-11-02T04:36:30;6.65;;;2.10;;
68432;SDS011;55412;51.350;17.056;2022-11-02T04:38:57;9.65;;;2.53;;
68432;SDS011;55412;51.350;17.056;2022-11-02T04:41:23;8.02;;;2.72;;
68432;SDS011;55412;51.350;17.056;2022-11-02T04:44:11;10.03;;;2.00;;
68432;SDS011;55412;51.350;17.056;2022-11-02T04:46:39;6.15;;;1.77;;
68432;SDS011;55412;51.350;17.056;2022-11-02T04:49:06;8.15;;;1.90;;
68432;SDS011;55412;51.350;17.056;2022-11-02T04:51:36;7.55;;;1.83;;
68432;SDS011;55412;51.350;17.056;2022-11-02T04:54:06;6.70;;;1.85;;
68432;SDS011;55412;51.350;17.056;2022-11-02T04:56:32;6.90;;;2.13;;
68432;SDS011;55412;51.350;17.056;2022-11-02T04:58:58;7.43;;;2.40;;
68432;SDS011;55412;51.350;17.056;2022-11-02T05:01:26;6.55;;;1.88;;
68432;SDS011;55412;51.350;17.056;2022-11-02T05:03:54;6.45;;;1.98;;
68432;SDS011;55412;51.350;17.056;2022-11-02T05:06:21;6.60;;;1.83;;
68432;SDS011;55412;51.350;17.056;2022-11-02T05:08:48;7.07;;;1.80;;
68432;SDS011;55412;51.350;17.056;2022-11-02T05:11:15;8.98;;;2.20;;
68432;SDS011;55412;51.350;17.056;2022-11-02T05:13:41;5.80;;;2.28;;
68432;SDS011;55412;51.350;17.056;2022-11-02T05:16:12;6.03;;;1.92;;
68432;SDS011;55412;51.350;17.056;2022-11-02T05:18:41;9.38;;;2.45;;
68432;SDS011;55412;51.350;17.056;2022-11-02T05:21:08;7.00;;;2.33;;
68432;SDS011;55412;51.350;17.056;2022-11-02T05:23:35;8.52;;;2.42;;
68432;SDS011;55412;51.350;17.056;2022-11-02T05:26:04;12.20;;;2.38;;
68432;SDS011;55412;51.350;17.056;2022-11-02T05:28:33;8.05;;;2.63;;
68432;SDS011;55412;51.350;17.056;2022-11-02T05:31:00;8.85;;;2.15;;
68432;SDS011;55412;51.350;17.056;2022-11-02T05:33:27;8.57;;;2.37;;
68432;SDS011;55412;51.350;17.056;2022-11-02T05:35:55;8.90;;;2.88;;
68432;SDS011;55412;51.350;17.056;2022-11-02T05:38:23;6.15;;;2.10;;
68432;SDS011;55412;51.350;17.056;2022-11-02T05:40:53;7.43;;;2.53;;
68432;SDS011;55412;51.350;17.056;2022-11-02T05:43:24;8.82;;;2.40;;
68432;SDS011;55412;51.350;17.056;2022-11-02T05:45:51;8.67;;;2.67;;
68432;SDS011;55412;51.350;17.056;2022-11-02T05:48:23;8.45;;;2.35;;
68432;SDS011;55412;51.350;17.056;2022-11-02T05:50:57;7.20;;;2.25;;
68432;SDS011;55412;51.350;17.056;2022-11-02T05:53:26;7.93;;;2.30;;
68432;SDS011;55412;51.350;17.056;2022-11-02T05:55:57;6.45;;;2.50;;
68432;SDS011;55412;51.350;17.056;2022-11-02T05:58:24;8.47;;;2.23;;
68432;SDS011;55412;51.350;17.056;2022-11-02T06:00:51;6.15;;;2.13;;
68432;SDS011;55412;51.350;17.056;2022-11-02T06:03:18;7.20;;;2.28;;
68432;SDS011;55412;51.350;17.056;2022-11-02T06:05:44;9.88;;;2.88;;
68432;SDS011;55412;51.350;17.056;2022-11-02T06:08:11;6.80;;;2.20;;
68432;SDS011;55412;51.350;17.056;2022-11-02T06:10:36;9.73;;;2.23;;
68432;SDS011;55412;51.350;17.056;2022-11-02T06:13:06;9.52;;;2.83;;
68432;SDS011;55412;51.350;17.056;2022-11-02T06:15:32;7.57;;;2.53;;
68432;SDS011;55412;51.350;17.056;2022-11-02T06:17:58;6.78;;;2.70;;
68432;SDS011;55412;51.350;17.056;2022-11-02T06:20:24;9.02;;;2.85;;
68432;SDS011;55412;51.350;17.056;2022-11-02T06:22:51;10.50;;;2.10;;
68432;SDS011;55412;51.350;17.056;2022-11-02T06:25:17;7.55;;;2.05;;
68432;SDS011;55412;51.350;17.056;2022-11-02T06:27:52;7.18;;;2.35;;
68432;SDS011;55412;51.350;17.056;2022-11-02T06:30:23;7.97;;;2.38;;
68432;SDS011;55412;51.350;17.056;2022-11-02T06:32:51;10.35;;;2.35;;
68432;SDS011;55412;51.350;17.056;2022-11-02T06:35:18;9.70;;;2.40;;
68432;SDS011;55412;51.350;17.056;2022-11-02T06:37:46;8.77;;;2.63;;
68432;SDS011;55412;51.350;17.056;2022-11-02T06:40:12;8.85;;;1.83;;
68432;SDS011;55412;51.350;17.056;2022-11-02T06:42:40;5.15;;;1.48;;
68432;SDS011;55412;51.350;17.056;2022-11-02T06:45:06;8.25;;;2.30;;
68432;SDS011;55412;51.350;17.056;2022-11-02T06:47:33;9.33;;;2.10;;
68432;SDS011;55412;51.350;17.056;2022-11-02T06:50:01;7.40;;;2.10;;
68432;SDS011;55412;51.350;17.056;2022-11-02T06:52:29;8.68;;;1.92;;
68432;SDS011;55412;51.350;17.056;2022-11-02T06:54:56;6.95;;;1.65;;
68432;SDS011;55412;51.350;17.056;2022-11-02T06:57:22;7.75;;;1.50;;
68432;SDS011;55412;51.350;17.056;2022-11-02T06:59:48;7.83;;;1.73;;
68432;SDS011;55412;51.350;17.056;2022-11-02T07:02:14;9.52;;;2.92;;
68432;SDS011;55412;51.350;17.056;2022-11-02T07:04:40;6.68;;;2.05;;
68432;SDS011;55412;51.350;17.056;2022-11-02T07:07:06;13.30;;;2.55;;
68432;SDS011;55412;51.350;17.056;2022-11-02T07:09:32;7.35;;;1.80;;
68432;SDS011;55412;51.350;17.056;2022-11-02T07:11:59;8.03;;;2.33;;
68432;SDS011;55412;51.350;17.056;2022-11-02T07:14:25;7.13;;;1.58;;
68432;SDS011;55412;51.350;17.056;2022-11-02T07:16:51;6.88;;;1.67;;
68432;SDS011;55412;51.350;17.056;2022-11-02T07:19:17;4.75;;;1.30;;
68432;SDS011;55412;51.350;17.056;2022-11-02T07:21:43;5.22;;;1.80;;
68432;SDS011;55412;51.350;17.056;2022-11-02T07:24:09;4.77;;;1.50;;
68432;SDS011;55412;51.350;17.056;2022-11-02T07:26:35;8.70;;;2.38;;
68432;SDS011;55412;51.350;17.056;2022-11-02T07:29:01;5.82;;;1.20;;
68432;SDS011;55412;51.350;17.056;2022-11-02T07:31:27;8.00;;;1.75;;
68432;SDS011;55412;51.350;17.056;2022-11-02T07:33:53;5.80;;;1.23;;
68432;SDS011;55412;51.350;17.056;2022-11-02T07:36:19;5.90;;;1.50;;
68432;SDS011;55412;51.350;17.056;2022-11-02T07:38:45;7.00;;;1.95;;
68432;SDS011;55412;51.350;17.056;2022-11-02T07:41:17;5.90;;;1.55;;
68432;SDS011;55412;51.350;17.056;2022-11-02T07:43:43;6.55;;;1.90;;
68432;SDS011;55412;51.350;17.056;2022-11-02T07:46:15;9.97;;;1.50;;
68432;SDS011;55412;51.350;17.056;2022-11-02T07:48:41;8.13;;;2.08;;
68432;SDS011;55412;51.350;17.056;2022-11-02T07:51:07;8.93;;;1.88;;
68432;SDS011;55412;51.350;17.056;2022-11-02T07:53:35;10.63;;;2.15;;
68432;SDS011;55412;51.350;17.056;2022-11-02T07:56:02;6.65;;;2.10;;
68432;SDS011;55412;51.350;17.056;2022-11-02T07:58:28;7.40;;;1.60;;
68432;SDS011;55412;51.350;17.056;2022-11-02T08:00:58;6.75;;;1.98;;
68432;SDS011;55412;51.350;17.056;2022-11-02T08:03:26;6.90;;;1.90;;
68432;SDS011;55412;51.350;17.056;2022-11-02T08:05:53;8.48;;;2.40;;
68432;SDS011;55412;51.350;17.056;2022-11-02T08:08:22;6.57;;;1.65;;
68432;SDS011;55412;51.350;17.056;2022-11-02T08:10:50;6.60;;;1.57;;
68432;SDS011;55412;51.350;17.056;2022-11-02T08:13:18;5.88;;;1.42;;
68432;SDS011;55412;51.350;17.056;2022-11-02T08:15:50;5.90;;;2.05;;
68432;SDS011;55412;51.350;17.056;2022-11-02T08:18:21;6.43;;;1.55;;
68432;SDS011;55412;51.350;17.056;2022-11-02T08:20:56;7.45;;;1.75;;
68432;SDS011;55412;51.350;17.056;2022-11-02T08:23:24;4.57;;;1.60;;
68432;SDS011;55412;51.350;17.056;2022-11-02T08:25:51;5.07;;;1.60;;
68432;SDS011;55412;51.350;17.056;2022-11-02T08:28:22;7.03;;;2.47;;
68432;SDS011;55412;51.350;17.056;2022-11-02T08:30:52;6.57;;;1.52;;
68432;SDS011;55412;51.350;17.056;2022-11-02T08:33:19;6.60;;;2.05;;
68432;SDS011;55412;51.350;17.056;2022-11-02T08:35:46;5.87;;;1.50;;
68432;SDS011;55412;51.350;17.056;2022-11-02T08:38:13;5.20;;;1.58;;
68432;SDS011;55412;51.350;17.056;2022-11-02T08:40:45;5.68;;;1.65;;
68432;SDS011;55412;51.350;17.056;2022-11-02T08:43:12;7.45;;;1.50;;
68432;SDS011;55412;51.350;17.056;2022-11-02T08:45:40;5.38;;;1.63;;
68432;SDS011;55412;51.350;17.056;2022-11-02T08:48:08;6.53;;;1.50;;
68432;SDS011;55412;51.350;17.056;2022-11-02T08:50:34;6.78;;;1.80;;
68432;SDS011;55412;51.350;17.056;2022-11-02T08:53:01;6.78;;;1.63;;
68432;SDS011;55412;51.350;17.056;2022-11-02T08:55:27;6.80;;;1.38;;
68432;SDS011;55412;51.350;17.056;2022-11-02T08:57:53;7.00;;;1.80;;
68432;SDS011;55412;51.350;17.056;2022-11-02T09:00:28;7.33;;;1.40;;
68432;SDS011;55412;51.350;17.056;2022-11-02T09:03:00;7.00;;;1.50;;
68432;SDS011;55412;51.350;17.056;2022-11-02T09:05:28;6.30;;;1.65;;
68432;SDS011;55412;51.350;17.056;2022-11-02T09:07:58;5.57;;;1.80;;
68432;SDS011;55412;51.350;17.056;2022-11-02T09:10:27;5.28;;;1.40;;
68432;SDS011;55412;51.350;17.056;2022-11-02T09:12:57;5.80;;;1.13;;
68432;SDS011;55412;51.350;17.056;2022-11-02T09:15:25;6.82;;;1.42;;
68432;SDS011;55412;51.350;17.056;2022-11-02T09:17:55;7.60;;;1.70;;
68432;SDS011;55412;51.350;17.056;2022-11-02T09:20:24;6.93;;;1.20;;
68432;SDS011;55412;51.350;17.056;2022-11-02T09:22:50;7.35;;;1.60;;
68432;SDS011;55412;51.350;17.056;2022-11-02T09:25:16;6.60;;;1.67;;
68432;SDS011;55412;51.350;17.056;2022-11-02T09:27:42;7.57;;;1.40;;
68432;SDS011;55412;51.350;17.056;2022-11-02T09:30:09;5.18;;;1.20;;
68432;SDS011;55412;51.350;17.056;2022-11-02T09:32:37;5.70;;;1.25;;
68432;SDS011;55412;51.350;17.056;2022-11-02T09:35:07;4.20;;;0.75;;
68432;SDS011;55412;51.350;17.056;2022-11-02T09:37:35;4.77;;;0.93;;
68432;SDS011;55412;51.350;17.056;2022-11-02T09:40:03;6.93;;;1.25;;
68432;SDS011;55412;51.350;17.056;2022-11-02T09:45:29;8.45;;;1.20;;
68432;SDS011;55412;51.350;17.056;2022-11-02T09:48:35;6.15;;;1.20;;
68432;SDS011;55412;51.350;17.056;2022-11-02T09:51:11;7.87;;;0.90;;
68432;SDS011;55412;51.350;17.056;2022-11-02T09:53:51;5.57;;;0.80;;
68432;SDS011;55412;51.350;17.056;2022-11-02T09:56:40;5.57;;;1.10;;
68432;SDS011;55412;51.350;17.056;2022-11-02T09:59:29;6.53;;;0.85;;
68432;SDS011;55412;51.350;17.056;2022-11-02T10:08:23;4.32;;;0.85;;
68432;SDS011;55412;51.350;17.056;2022-11-02T10:17:16;8.98;;;1.08;;
68432;SDS011;55412;51.350;17.056;2022-11-02T10:19:55;5.23;;;1.20;;
68432;SDS011;55412;51.350;17.056;2022-11-02T10:22:32;5.68;;;1.13;;
68432;SDS011;55412;51.350;17.056;2022-11-02T10:25:03;5.88;;;1.27;;
68432;SDS011;55412;51.350;17.056;2022-11-02T10:27:40;5.75;;;1.60;;
68432;SDS011;55412;51.350;17.056;2022-11-02T10:30:13;6.78;;;2.25;;
68432;SDS011;55412;51.350;17.056;2022-11-02T10:32:43;6.60;;;1.50;;
68432;SDS011;55412;51.350;17.056;2022-11-02T10:38:17;10.80;;;2.10;;
68432;SDS011;55412;51.350;17.056;2022-11-02T10:43:52;5.20;;;1.83;;
68432;SDS011;55412;51.350;17.056;2022-11-02T10:47:16;7.83;;;2.40;;
68432;SDS011;55412;51.350;17.056;2022-11-02T10:49:56;6.55;;;2.72;;
68432;SDS011;55412;51.350;17.056;2022-11-02T10:52:53;6.15;;;1.85;;
68432;SDS011;55412;51.350;17.056;2022-11-02T10:55:27;6.68;;;2.03;;
68432;SDS011;55412;51.350;17.056;2022-11-02T10:58:10;4.82;;;2.28;;
68432;SDS011;55412;51.350;17.056;2022-11-02T11:00:42;9.87;;;2.60;;
68432;SDS011;55412;51.350;17.056;2022-11-02T11:03:17;6.72;;;2.40;;
68432;SDS011;55412;51.350;17.056;2022-11-02T11:05:54;9.23;;;2.20;;
68432;SDS011;55412;51.350;17.056;2022-11-02T11:08:42;8.05;;;2.58;;
68432;SDS011;55412;51.350;17.056;2022-11-02T11:13:40;8.63;;;2.63;;
68432;SDS011;55412;51.350;17.056;2022-11-02T11:16:08;8.65;;;2.08;;
68432;SDS011;55412;51.350;17.056;2022-11-02T11:18:36;10.68;;;2.35;;
68432;SDS011;55412;51.350;17.056;2022-11-02T11:21:02;12.60;;;2.20;;
68432;SDS011;55412;51.350;17.056;2022-11-02T11:23:29;6.47;;;2.50;;
68432;SDS011;55412;51.350;17.056;2022-11-02T11:25:59;7.80;;;2.17;;
68432;SDS011;55412;51.350;17.056;2022-11-02T11:31:05;8.73;;;2.60;;
68432;SDS011;55412;51.350;17.056;2022-11-02T11:33:43;8.20;;;2.22;;
68432;SDS011;55412;51.350;17.056;2022-11-02T11:36:26;9.77;;;2.40;;
68432;SDS011;55412;51.350;17.056;2022-11-02T11:41:51;35.53;;;5.03;;
68432;SDS011;55412;51.350;17.056;2022-11-02T11:44:17;7.80;;;2.30;;
68432;SDS011;55412;51.350;17.056;2022-11-02T11:46:45;5.72;;;2.33;;
68432;SDS011;55412;51.350;17.056;2022-11-02T11:51:57;7.07;;;2.00;;
68432;SDS011;55412;51.350;17.056;2022-11-02T11:54:26;4.95;;;2.15;;
68432;SDS011;55412;51.350;17.056;2022-11-02T11:56:58;11.05;;;2.40;;
68432;SDS011;55412;51.350;17.056;2022-11-02T11:59:49;11.13;;;2.08;;
68432;SDS011;55412;51.350;17.056;2022-11-02T12:02:23;8.60;;;3.17;;
68432;SDS011;55412;51.350;17.056;2022-11-02T12:05:14;7.53;;;2.43;;
68432;SDS011;55412;51.350;17.056;2022-11-02T12:08:05;7.25;;;2.05;;
68432;SDS011;55412;51.350;17.056;2022-11-02T12:13:37;7.15;;;2.38;;
68432;SDS011;55412;51.350;17.056;2022-11-02T12:25:03;8.43;;;1.95;;
68432;SDS011;55412;51.350;17.056;2022-11-02T12:31:05;12.05;;;2.00;;
68432;SDS011;55412;51.350;17.056;2022-11-02T12:34:05;5.37;;;1.20;;
68432;SDS011;55412;51.350;17.056;2022-11-02T12:42:47;7.03;;;1.20;;
68432;SDS011;55412;51.350;17.056;2022-11-02T12:45:49;5.20;;;0.90;;
68432;SDS011;55412;51.350;17.056;2022-11-02T12:51:28;4.68;;;0.93;;
68432;SDS011;55412;51.350;17.056;2022-11-02T12:54:08;5.07;;;1.10;;
68432;SDS011;55412;51.350;17.056;2022-11-02T13:05:27;5.50;;;0.90;;
68432;SDS011;55412;51.350;17.056;2022-11-02T13:10:32;4.88;;;0.75;;
68432;SDS011;55412;51.350;17.056;2022-11-02T13:13:09;9.00;;;1.13;;
68432;SDS011;55412;51.350;17.056;2022-11-02T13:15:41;5.97;;;0.90;;
68432;SDS011;55412;51.350;17.056;2022-11-02T13:18:12;4.90;;;0.75;;
68432;SDS011;55412;51.350;17.056;2022-11-02T13:20:50;6.10;;;1.10;;
68432;SDS011;55412;51.350;17.056;2022-11-02T13:26:25;6.72;;;1.08;;
68432;SDS011;55412;51.350;17.056;2022-11-02T13:29:10;5.73;;;1.13;;
68432;SDS011;55412;51.350;17.056;2022-11-02T13:32:05;5.70;;;1.00;;
68432;SDS011;55412;51.350;17.056;2022-11-02T13:34:52;7.13;;;1.17;;
68432;SDS011;55412;51.350;17.056;2022-11-02T13:37:27;8.45;;;1.10;;
68432;SDS011;55412;51.350;17.056;2022-11-02T13:40:10;5.72;;;1.20;;
68432;SDS011;55412;51.350;17.056;2022-11-02T13:46:01;5.60;;;1.00;;
68432;SDS011;55412;51.350;17.056;2022-11-02T13:51:32;4.13;;;0.95;;
68432;SDS011;55412;51.350;17.056;2022-11-02T13:54:18;5.38;;;1.13;;
68432;SDS011;55412;51.350;17.056;2022-11-02T13:56:55;5.63;;;1.70;;
68432;SDS011;55412;51.350;17.056;2022-11-02T13:59:33;6.03;;;1.08;;
68432;SDS011;55412;51.350;17.056;2022-11-02T14:02:05;5.97;;;1.23;;
68432;SDS011;55412;51.350;17.056;2022-11-02T14:04:41;11.32;;;1.33;;
68432;SDS011;55412;51.350;17.056;2022-11-02T14:09:57;10.40;;;1.20;;
68432;SDS011;55412;51.350;17.056;2022-11-02T14:12:41;7.10;;;1.45;;
68432;SDS011;55412;51.350;17.056;2022-11-02T14:33:48;5.78;;;1.35;;
68432;SDS011;55412;51.350;17.056;2022-11-02T14:42:23;6.40;;;1.20;;
68432;SDS011;55412;51.350;17.056;2022-11-02T14:48:00;5.30;;;1.30;;
68432;SDS011;55412;51.350;17.056;2022-11-02T14:50:29;9.00;;;1.63;;
68432;SDS011;55412;51.350;17.056;2022-11-02T14:55:31;6.95;;;1.60;;
68432;SDS011;55412;51.350;17.056;2022-11-02T14:58:03;6.22;;;1.30;;
68432;SDS011;55412;51.350;17.056;2022-11-02T15:06:05;6.60;;;1.70;;
68432;SDS011;55412;51.350;17.056;2022-11-02T15:08:57;6.30;;;1.60;;
68432;SDS011;55412;51.350;17.056;2022-11-02T15:19:35;6.25;;;1.50;;
68432;SDS011;55412;51.350;17.056;2022-11-02T15:25:00;6.53;;;1.42;;
68432;SDS011;55412;51.350;17.056;2022-11-02T15:27:36;7.45;;;1.77;;
68432;SDS011;55412;51.350;17.056;2022-11-02T15:30:10;7.20;;;1.43;;
68432;SDS011;55412;51.350;17.056;2022-11-02T15:32:40;7.88;;;1.60;;
68432;SDS011;55412;51.350;17.056;2022-11-02T15:35:18;8.65;;;1.75;;
68432;SDS011;55412;51.350;17.056;2022-11-02T15:37:50;8.68;;;2.05;;
68432;SDS011;55412;51.350;17.056;2022-11-02T15:40:22;5.32;;;1.80;;
68432;SDS011;55412;51.350;17.056;2022-11-02T15:46:27;7.90;;;1.95;;
68432;SDS011;55412;51.350;17.056;2022-11-02T15:54:51;5.65;;;1.50;;
68432;SDS011;55412;51.350;17.056;2022-11-02T15:57:51;8.77;;;1.40;;
68432;SDS011;55412;51.350;17.056;2022-11-02T16:00:23;6.45;;;1.67;;
68432;SDS011;55412;51.350;17.056;2022-11-02T16:02:58;5.20;;;1.35;;
68432;SDS011;55412;51.350;17.056;2022-11-02T16:08:21;8.07;;;1.83;;
68432;SDS011;55412;51.350;17.056;2022-11-02T16:11:01;5.67;;;1.63;;
68432;SDS011;55412;51.350;17.056;2022-11-02T16:13:41;9.93;;;1.83;;
68432;SDS011;55412;51.350;17.056;2022-11-02T16:16:15;5.28;;;1.70;;
68432;SDS011;55412;51.350;17.056;2022-11-02T16:18:43;10.77;;;1.95;;
68432;SDS011;55412;51.350;17.056;2022-11-02T16:21:17;6.30;;;1.45;;
68432;SDS011;55412;51.350;17.056;2022-11-02T16:23:48;6.57;;;1.17;;
68432;SDS011;55412;51.350;17.056;2022-11-02T16:26:22;8.48;;;1.73;;
68432;SDS011;55412;51.350;17.056;2022-11-02T16:28:54;5.57;;;1.23;;
68432;SDS011;55412;51.350;17.056;2022-11-02T16:31:25;6.55;;;1.67;;
68432;SDS011;55412;51.350;17.056;2022-11-02T16:33:59;6.60;;;2.00;;
68432;SDS011;55412;51.350;17.056;2022-11-02T16:36:29;9.50;;;1.77;;
68432;SDS011;55412;51.350;17.056;2022-11-02T16:39:05;10.45;;;1.75;;
68432;SDS011;55412;51.350;17.056;2022-11-02T16:41:54;7.90;;;2.10;;
68432;SDS011;55412;51.350;17.056;2022-11-02T16:44:24;5.00;;;1.33;;
68432;SDS011;55412;51.350;17.056;2022-11-02T16:47:26;7.80;;;1.48;;
68432;SDS011;55412;51.350;17.056;2022-11-02T16:49:55;7.10;;;1.83;;
68432;SDS011;55412;51.350;17.056;2022-11-02T16:54:56;9.77;;;1.95;;
68432;SDS011;55412;51.350;17.056;2022-11-02T16:57:23;5.57;;;1.52;;
68432;SDS011;55412;51.350;17.056;2022-11-02T16:59:56;13.55;;;2.20;;
68432;SDS011;55412;51.350;17.056;2022-11-02T17:02:32;6.30;;;1.70;;
68432;SDS011;55412;51.350;17.056;2022-11-02T17:05:12;11.38;;;2.05;;
68432;SDS011;55412;51.350;17.056;2022-11-02T17:08:48;5.10;;;1.38;;
68432;SDS011;55412;51.350;17.056;2022-11-02T17:11:03;4.88;;;1.25;;
68432;SDS011;55412;51.350;17.056;2022-11-02T17:13:34;6.63;;;2.00;;
68432;SDS011;55412;51.350;17.056;2022-11-02T17:16:03;5.97;;;1.57;;
68432;SDS011;55412;51.350;17.056;2022-11-02T17:18:33;11.25;;;1.80;;
68432;SDS011;55412;51.350;17.056;2022-11-02T17:23:46;8.27;;;1.98;;
68432;SDS011;55412;51.350;17.056;2022-11-02T17:28:55;7.83;;;2.00;;
68432;SDS011;55412;51.350;17.056;2022-11-02T17:34:01;8.85;;;1.77;;
68432;SDS011;55412;51.350;17.056;2022-11-02T17:36:42;6.38;;;2.15;;
68432;SDS011;55412;51.350;17.056;2022-11-02T17:39:15;7.20;;;2.50;;
68432;SDS011;55412;51.350;17.056;2022-11-02T17:41:45;6.70;;;2.17;;
68432;SDS011;55412;51.350;17.056;2022-11-02T17:44:40;8.23;;;3.17;;
68432;SDS011;55412;51.350;17.056;2022-11-02T17:47:13;6.88;;;2.28;;
68432;SDS011;55412;51.350;17.056;2022-11-02T17:49:42;6.75;;;2.08;;
68432;SDS011;55412;51.350;17.056;2022-11-02T17:52:11;6.35;;;2.05;;
68432;SDS011;55412;51.350;17.056;2022-11-02T17:54:40;12.47;;;2.67;;
68432;SDS011;55412;51.350;17.056;2022-11-02T17:57:12;8.13;;;2.20;;
68432;SDS011;55412;51.350;17.056;2022-11-02T17:59:39;6.38;;;2.17;;
68432;SDS011;55412;51.350;17.056;2022-11-02T18:02:12;7.60;;;2.03;;
68432;SDS011;55412;51.350;17.056;2022-11-02T18:04:39;6.30;;;1.92;;
68432;SDS011;55412;51.350;17.056;2022-11-02T18:07:05;7.43;;;1.60;;